createdAt,value
2022-08-28T00:01:09.437Z,8.15
2022-08-28T00:03:41.914Z,10.50
2022-08-28T00:06:13.744Z,9.25
2022-08-28T00:08:46.645Z,9.70
2022-08-28T00:11:18.487Z,8.40
2022-08-28T00:13:50.398Z,9.27
2022-08-28T00:16:22.292Z,7.70
2022-08-28T00:18:58.012Z,8.35
2022-08-28T00:21:29.912Z,10.25
2022-08-28T00:24:02.156Z,9.30
2022-08-28T00:26:52.679Z,10.23
2022-08-28T00:29:24.928Z,10.23
2022-08-28T00:31:56.734Z,12.63
2022-08-28T00:34:33.165Z,13.82
2022-08-28T00:37:05.978Z,9.23
2022-08-28T00:39:37.885Z,11.65
2022-08-28T00:42:10.248Z,7.97
2022-08-28T00:44:42.280Z,14.65
2022-08-28T00:47:14.250Z,8.00
2022-08-28T00:49:51.394Z,8.15
2022-08-28T00:52:24.285Z,7.30
2022-08-28T00:55:11.433Z,13.35
2022-08-28T00:57:48.534Z,11.13
2022-08-28T01:00:41.201Z,10.23
2022-08-28T01:03:13.354Z,10.57
2022-08-28T01:05:50.182Z,12.23
2022-08-28T01:08:22.979Z,12.02
2022-08-28T01:10:55.425Z,10.05
2022-08-28T01:13:27.200Z,11.63
2022-08-28T01:15:59.531Z,8.85
2022-08-28T01:18:32.409Z,9.75
2022-08-28T01:21:30.004Z,9.68
2022-08-28T01:24:04.879Z,8.52
2022-08-28T01:26:38.510Z,8.38
2022-08-28T01:29:11.507Z,11.98
2022-08-28T01:31:43.400Z,11.10
2022-08-28T01:34:15.190Z,8.90
2022-08-28T01:36:48.568Z,8.88
2022-08-28T01:39:22.831Z,6.25
2022-08-28T01:41:55.718Z,9.27
2022-08-28T01:44:27.664Z,10.10
2022-08-28T01:46:59.703Z,8.63
2022-08-28T01:49:31.444Z,7.50
2022-08-28T01:52:04.029Z,8.35
2022-08-28T01:54:36.105Z,8.73
2022-08-28T01:57:08.025Z,7.32
2022-08-28T01:59:39.961Z,9.18
2022-08-28T02:02:12.896Z,12.30
2022-08-28T02:04:48.014Z,5.95
2022-08-28T02:07:23.060Z,8.00
2022-08-28T02:09:55.067Z,7.03
2022-08-28T02:12:26.997Z,7.88
2022-08-28T02:14:58.761Z,7.55
2022-08-28T02:17:30.818Z,8.13
2022-08-28T02:20:03.753Z,5.35
2022-08-28T02:22:35.759Z,5.40
2022-08-28T02:25:08.590Z,5.18
2022-08-28T02:27:40.753Z,5.43
2022-08-28T02:30:13.485Z,5.72
2022-08-28T02:32:46.350Z,6.88
2022-08-28T02:35:18.880Z,9.10
2022-08-28T02:37:50.992Z,7.68
2022-08-28T02:40:26.359Z,5.13
2022-08-28T02:42:58.285Z,6.57
2022-08-28T02:45:30.203Z,7.10
2022-08-28T02:48:02.089Z,6.15
2022-08-28T02:50:33.850Z,6.13
2022-08-28T02:53:05.914Z,7.38
2022-08-28T02:55:37.745Z,8.93
2022-08-28T02:58:09.906Z,5.18
2022-08-28T03:00:44.428Z,6.22
2022-08-28T03:03:16.229Z,5.05
2022-08-28T03:05:48.143Z,7.10
2022-08-28T03:08:19.978Z,6.20
2022-08-28T03:10:59.545Z,5.05
2022-08-28T03:13:31.330Z,5.22
2022-08-28T03:16:04.966Z,5.70
2022-08-28T03:18:37.118Z,4.30
2022-08-28T03:21:09.165Z,4.53
2022-08-28T03:23:43.553Z,5.63
2022-08-28T03:26:17.902Z,8.95
2022-08-28T03:28:52.114Z,6.68
2022-08-28T03:31:25.212Z,6.20
2022-08-28T03:33:57.616Z,5.65
2022-08-28T03:36:29.709Z,3.65
2022-08-28T03:39:05.698Z,4.72
2022-08-28T03:41:37.528Z,4.22
2022-08-28T03:44:09.480Z,3.85
2022-08-28T03:46:41.662Z,3.92
2022-08-28T03:49:13.802Z,3.33
2022-08-28T03:51:45.895Z,3.53
2022-08-28T03:54:17.739Z,4.53
2022-08-28T03:56:49.891Z,4.70
2022-08-28T03:59:21.824Z,3.40
2022-08-28T04:01:58.469Z,3.38
2022-08-28T04:04:30.242Z,4.30
2022-08-28T04:07:02.771Z,3.70
2022-08-28T04:09:34.543Z,3.53
2022-08-28T04:12:08.365Z,6.50
2022-08-28T04:14:40.188Z,4.18
2022-08-28T04:17:12.102Z,5.47
2022-08-28T04:19:45.254Z,3.83
2022-08-28T04:25:40.330Z,3.90
2022-08-28T04:28:12.197Z,3.55
2022-08-28T04:30:44.161Z,3.47
2022-08-28T04:33:16.038Z,3.20
2022-08-28T04:35:48.244Z,2.90
2022-08-28T04:38:20.160Z,4.07
2022-08-28T04:40:52.056Z,2.50
2022-08-28T04:43:23.926Z,2.80
2022-08-28T04:45:56.670Z,4.00
2022-08-28T04:48:28.684Z,5.15
2022-08-28T04:51:00.485Z,3.00
2022-08-28T04:53:33.043Z,3.20
2022-08-28T04:56:06.899Z,7.70
2022-08-28T04:58:38.940Z,4.43
2022-08-28T05:01:18.634Z,2.58
2022-08-28T05:03:54.983Z,4.38
2022-08-28T05:06:28.181Z,3.30
2022-08-28T05:09:01.113Z,2.97
2022-08-28T05:11:35.021Z,3.60
2022-08-28T05:14:11.546Z,4.05
2022-08-28T05:16:50.203Z,3.00
2022-08-28T05:19:25.349Z,4.00
2022-08-28T05:21:57.412Z,4.10
2022-08-28T05:24:29.275Z,4.47
2022-08-28T05:27:02.300Z,3.70
2022-08-28T05:29:34.177Z,4.03
2022-08-28T05:32:06.135Z,4.30
2022-08-28T05:34:38.254Z,9.27
2022-08-28T05:37:10.071Z,5.03
2022-08-28T05:39:41.932Z,2.70
2022-08-28T05:42:13.731Z,4.15
2022-08-28T05:44:45.656Z,3.17
2022-08-28T05:47:18.240Z,4.97
2022-08-28T05:49:53.800Z,3.22
2022-08-28T05:52:25.843Z,2.80
2022-08-28T05:54:58.666Z,4.45
2022-08-28T05:57:30.691Z,3.08
2022-08-28T06:00:03.998Z,5.47
2022-08-28T06:02:36.182Z,4.43
2022-08-28T06:05:09.297Z,3.03
2022-08-28T06:07:45.103Z,3.25
2022-08-28T06:10:17.146Z,2.45
2022-08-28T06:12:50.363Z,2.80
2022-08-28T06:15:22.446Z,2.35
2022-08-28T06:17:54.291Z,4.38
2022-08-28T06:20:26.139Z,6.43
2022-08-28T06:22:59.763Z,2.85
2022-08-28T06:25:31.702Z,3.38
2022-08-28T06:28:04.324Z,2.70
2022-08-28T06:30:40.099Z,1.95
2022-08-28T06:33:15.484Z,2.10
2022-08-28T06:35:49.939Z,3.30
2022-08-28T06:38:23.410Z,2.03
2022-08-28T06:40:55.845Z,2.75
2022-08-28T06:43:29.200Z,1.58
2022-08-28T06:46:04.749Z,1.70
2022-08-28T06:48:36.992Z,4.22
2022-08-28T06:51:10.162Z,3.15
2022-08-28T06:53:42.698Z,2.50
2022-08-28T06:56:26.188Z,1.63
2022-08-28T06:58:59.002Z,2.50
2022-08-28T07:01:33.019Z,2.55
2022-08-28T07:04:09.297Z,1.73
2022-08-28T07:06:43.267Z,1.67
2022-08-28T07:09:15.020Z,1.30
2022-08-28T07:11:46.906Z,1.40
2022-08-28T07:14:18.774Z,1.48
2022-08-28T07:16:50.624Z,3.83
2022-08-28T07:19:23.992Z,2.88
2022-08-28T07:21:55.776Z,3.20
2022-08-28T07:24:29.415Z,1.50
2022-08-28T07:27:01.964Z,1.30
2022-08-28T07:29:33.972Z,1.10
2022-08-28T07:32:05.989Z,1.35
2022-08-28T07:34:39.183Z,1.13
2022-08-28T07:37:15.336Z,1.60
2022-08-28T07:39:47.325Z,1.30
2022-08-28T07:42:37.627Z,1.58
2022-08-28T07:45:10.064Z,0.90
2022-08-28T07:47:42.169Z,0.80
2022-08-28T07:50:15.312Z,1.40
2022-08-28T07:52:47.532Z,1.00
2022-08-28T07:55:19.441Z,1.08
2022-08-28T07:57:52.994Z,1.15
2022-08-28T08:00:27.671Z,1.08
2022-08-28T08:02:59.689Z,0.85
2022-08-28T08:05:31.738Z,2.08
2022-08-28T08:08:04.134Z,0.98
2022-08-28T08:10:37.101Z,1.05
2022-08-28T08:13:09.125Z,1.55
2022-08-28T08:15:42.049Z,0.80
2022-08-28T08:18:14.093Z,1.80
2022-08-28T08:20:46.173Z,5.13
2022-08-28T08:23:18.214Z,2.55
2022-08-28T08:26:00.539Z,1.00
2022-08-28T08:28:33.994Z,4.97
2022-08-28T08:31:37.189Z,0.63
2022-08-28T08:34:12.956Z,0.93
2022-08-28T08:36:44.739Z,1.02
2022-08-28T08:39:16.539Z,1.33
2022-08-28T08:41:58.540Z,2.55
2022-08-28T08:44:34.375Z,1.95
2022-08-28T08:47:15.287Z,1.98
2022-08-28T08:49:57.264Z,0.75
2022-08-28T08:52:45.501Z,0.80
2022-08-28T08:55:45.144Z,0.90
2022-08-28T08:58:26.515Z,1.85
2022-08-28T09:01:18.863Z,0.73
2022-08-28T09:04:15.717Z,0.50
2022-08-28T09:06:51.040Z,1.38
2022-08-28T09:09:37.929Z,2.65
2022-08-28T09:12:18.266Z,1.08
2022-08-28T09:15:05.593Z,1.13
2022-08-28T09:17:43.197Z,3.95
2022-08-28T09:20:18.448Z,0.50
2022-08-28T09:22:53.405Z,0.65
2022-08-28T09:25:51.403Z,0.60
2022-08-28T09:28:26.459Z,2.58
2022-08-28T09:30:59.588Z,0.65
2022-08-28T09:33:42.228Z,1.52
2022-08-28T09:36:33.331Z,1.23
2022-08-28T09:39:29.332Z,0.93
2022-08-28T09:42:37.469Z,1.95
2022-08-28T09:45:13.624Z,0.93
2022-08-28T09:47:51.268Z,3.20
2022-08-28T09:50:24.640Z,1.40
2022-08-28T09:53:13.591Z,0.93
2022-08-28T09:56:06.879Z,1.13
2022-08-28T09:58:47.131Z,1.00
2022-08-28T10:01:46.291Z,1.08
2022-08-28T10:04:27.955Z,1.05
2022-08-28T10:06:59.804Z,0.75
2022-08-28T10:09:47.722Z,1.00
2022-08-28T10:12:22.575Z,0.93
2022-08-28T10:15:27.146Z,0.68
2022-08-28T10:18:32.903Z,1.27
2022-08-28T10:21:18.970Z,0.95
2022-08-28T10:23:56.597Z,1.77
2022-08-28T10:26:34.793Z,0.77
2022-08-28T10:29:09.399Z,0.80
2022-08-28T10:31:51.437Z,1.40
2022-08-28T10:34:48.061Z,0.75
2022-08-28T10:37:31.956Z,1.58
2022-08-28T10:40:08.888Z,0.95
2022-08-28T10:42:47.426Z,1.33
2022-08-28T10:45:21.826Z,0.85
2022-08-28T10:47:59.533Z,0.88
2022-08-28T10:50:39.359Z,2.25
2022-08-28T10:53:20.130Z,0.90
2022-08-28T10:56:07.917Z,2.40
2022-08-28T10:58:40.230Z,0.60
2022-08-28T11:01:14.196Z,1.42
2022-08-28T11:03:48.102Z,1.33
2022-08-28T11:06:26.549Z,1.88
2022-08-28T11:09:00.091Z,0.80
2022-08-28T11:11:44.168Z,0.93
2022-08-28T11:14:26.351Z,0.88
2022-08-28T11:17:06.108Z,1.05
2022-08-28T11:20:03.967Z,2.45
2022-08-28T11:22:45.920Z,2.53
2022-08-28T11:25:32.815Z,0.98
2022-08-28T11:28:12.047Z,1.92
2022-08-28T11:30:47.972Z,1.98
2022-08-28T11:33:45.981Z,2.85
2022-08-28T11:36:20.678Z,1.42
2022-08-28T11:38:52.958Z,1.63
2022-08-28T11:41:31.961Z,1.25
2022-08-28T11:44:09.838Z,2.60
2022-08-28T11:46:45.610Z,1.67
2022-08-28T11:49:26.743Z,1.40
2022-08-28T11:52:30.207Z,1.92
2022-08-28T11:55:43.110Z,2.42
2022-08-28T11:58:30.146Z,1.33
2022-08-28T12:01:08.090Z,1.52
2022-08-28T12:04:08.768Z,1.40
2022-08-28T12:06:50.107Z,1.52
2022-08-28T12:09:37.213Z,1.13
2022-08-28T12:12:14.717Z,1.50
2022-08-28T12:14:48.821Z,1.67
2022-08-28T12:17:29.127Z,2.25
2022-08-28T12:20:10.519Z,2.90
2022-08-28T12:22:53.401Z,2.45
2022-08-28T12:25:32.788Z,2.63
2022-08-28T12:28:26.108Z,1.75
2022-08-28T12:31:05.916Z,1.38
2022-08-28T12:33:39.959Z,1.67
2022-08-28T12:36:14.940Z,2.03
2022-08-28T12:38:49.153Z,1.77
2022-08-28T12:41:21.130Z,1.63
2022-08-28T12:43:57.577Z,3.67
2022-08-28T12:46:38.549Z,2.15
2022-08-28T12:49:27.272Z,1.40
2022-08-28T12:52:20.312Z,1.88
2022-08-28T12:54:52.425Z,2.75
2022-08-28T12:57:26.120Z,1.63
2022-08-28T13:00:09.628Z,4.30
2022-08-28T13:02:41.551Z,3.55
2022-08-28T13:05:32.703Z,2.55
2022-08-28T13:08:10.074Z,2.22
2022-08-28T13:10:47.475Z,2.67
2022-08-28T13:13:31.105Z,2.67
2022-08-28T13:16:05.086Z,4.50
2022-08-28T13:18:37.705Z,4.35
2022-08-28T13:21:20.014Z,2.20
2022-08-28T13:24:27.314Z,2.78
2022-08-28T13:27:09.516Z,1.50
2022-08-28T13:30:08.899Z,2.92
2022-08-28T13:32:40.948Z,1.70
2022-08-28T13:35:34.498Z,3.80
2022-08-28T13:38:11.658Z,2.20
2022-08-28T13:40:57.869Z,3.75
2022-08-28T13:43:41.977Z,1.30
2022-08-28T13:46:13.917Z,2.33
2022-08-28T13:48:45.901Z,1.52
2022-08-28T13:51:20.621Z,1.33
2022-08-28T13:53:53.923Z,1.00
2022-08-28T13:56:27.206Z,1.95
2022-08-28T13:58:59.068Z,1.17
2022-08-28T14:01:49.414Z,5.20
2022-08-28T14:04:21.328Z,2.55
2022-08-28T14:06:53.509Z,0.93
2022-08-28T14:09:27.105Z,1.00
2022-08-28T14:11:59.567Z,2.92
2022-08-28T14:14:32.364Z,1.10
2022-08-28T14:17:04.487Z,1.10
2022-08-28T14:19:36.484Z,1.75
2022-08-28T14:22:08.243Z,1.23
2022-08-28T14:24:40.596Z,1.35
2022-08-28T14:27:12.677Z,1.30
2022-08-28T14:29:44.657Z,2.40
2022-08-28T14:32:16.588Z,1.15
2022-08-28T14:34:50.922Z,1.70
2022-08-28T14:37:22.765Z,1.13
2022-08-28T14:39:54.753Z,1.95
2022-08-28T14:42:27.075Z,3.70
2022-08-28T14:44:59.254Z,2.07
2022-08-28T14:47:31.161Z,2.70
2022-08-28T14:50:03.257Z,1.70
2022-08-28T14:52:35.699Z,4.05
2022-08-28T14:55:14.830Z,1.38
2022-08-28T14:57:51.444Z,1.45
2022-08-28T15:00:23.462Z,2.30
2022-08-28T15:02:59.826Z,2.43
2022-08-28T15:05:32.300Z,1.25
2022-08-28T15:08:10.520Z,1.80
2022-08-28T15:10:42.560Z,1.43
2022-08-28T15:13:15.377Z,1.42
2022-08-28T15:15:47.378Z,3.03
2022-08-28T15:18:19.137Z,3.53
2022-08-28T15:20:50.897Z,3.72
2022-08-28T15:23:22.652Z,1.02
2022-08-28T15:25:54.548Z,2.33
2022-08-28T15:28:26.397Z,2.47
2022-08-28T15:30:58.265Z,1.45
2022-08-28T15:33:30.235Z,3.03
2022-08-28T15:36:02.549Z,1.48
2022-08-28T15:38:54.372Z,3.28
2022-08-28T15:41:29.412Z,2.17
2022-08-28T15:44:02.151Z,1.20
2022-08-28T15:46:35.404Z,1.48
2022-08-28T15:49:09.296Z,1.77
2022-08-28T15:51:41.496Z,1.60
2022-08-28T15:54:13.653Z,4.47
2022-08-28T15:56:46.326Z,1.90
2022-08-28T15:59:21.613Z,1.83
2022-08-28T16:01:56.251Z,1.70
2022-08-28T16:04:28.648Z,1.45
2022-08-28T16:07:01.302Z,2.25
2022-08-28T16:09:33.336Z,1.30
2022-08-28T16:12:05.254Z,2.20
2022-08-28T16:14:37.359Z,1.73
2022-08-28T16:17:10.833Z,1.52
2022-08-28T16:19:43.327Z,1.40
2022-08-28T16:22:18.242Z,1.60
2022-08-28T16:24:51.068Z,2.63
2022-08-28T16:27:22.918Z,3.05
2022-08-28T16:29:54.824Z,1.42
2022-08-28T16:32:26.892Z,2.88
2022-08-28T16:34:58.773Z,1.58
2022-08-28T16:37:40.108Z,2.70
2022-08-28T16:40:12.587Z,1.45
2022-08-28T16:42:51.494Z,1.58
2022-08-28T16:45:23.777Z,4.13
2022-08-28T16:47:55.517Z,1.50
2022-08-28T16:50:31.704Z,1.85
2022-08-28T16:53:06.855Z,5.28
2022-08-28T16:55:40.468Z,1.38
2022-08-28T16:58:16.723Z,4.07
2022-08-28T17:00:52.414Z,1.40
2022-08-28T17:03:26.779Z,1.65
2022-08-28T17:05:59.927Z,1.25
2022-08-28T17:08:31.753Z,3.25
2022-08-28T17:11:03.594Z,2.43
2022-08-28T17:13:35.385Z,1.17
2022-08-28T17:16:08.250Z,1.35
2022-08-28T17:18:40.690Z,1.77
2022-08-28T17:21:39.977Z,2.90
2022-08-28T17:24:12.655Z,2.33
2022-08-28T17:26:44.780Z,1.52
2022-08-28T17:29:16.551Z,2.30
2022-08-28T17:31:48.457Z,1.63
2022-08-28T17:34:21.461Z,1.63
2022-08-28T17:36:53.588Z,3.80
2022-08-28T17:39:25.720Z,1.87
2022-08-28T17:41:57.769Z,1.90
2022-08-28T17:44:30.094Z,1.30
2022-08-28T17:47:02.329Z,3.47
2022-08-28T17:49:34.441Z,4.20
2022-08-28T17:52:06.404Z,2.63
2022-08-28T17:54:38.413Z,2.50
2022-08-28T17:57:10.268Z,1.83
2022-08-28T17:59:42.174Z,2.13
2022-08-28T18:02:16.700Z,1.30
2022-08-28T18:04:48.507Z,1.93
2022-08-28T18:07:20.584Z,1.35
2022-08-28T18:09:55.635Z,1.20
2022-08-28T18:12:27.614Z,2.70
2022-08-28T18:14:59.422Z,1.10
2022-08-28T18:17:31.393Z,2.87
2022-08-28T18:20:05.321Z,1.20
2022-08-28T18:22:38.049Z,2.83
2022-08-28T18:25:30.192Z,1.53
2022-08-28T18:28:02.602Z,1.50
2022-08-28T18:30:34.726Z,1.30
2022-08-28T18:33:06.545Z,1.60
2022-08-28T18:35:43.209Z,2.90
2022-08-28T18:38:20.139Z,1.40
2022-08-28T18:40:52.005Z,1.60
2022-08-28T18:43:24.024Z,1.00
2022-08-28T18:45:56.013Z,1.30
2022-08-28T18:48:27.926Z,2.77
2022-08-28T18:50:59.787Z,1.00
2022-08-28T18:53:31.542Z,1.37
2022-08-28T18:56:05.613Z,1.60
2022-08-28T18:58:37.354Z,1.50
2022-08-28T19:01:09.454Z,1.30
2022-08-28T19:03:41.208Z,2.33
2022-08-28T19:06:13.974Z,0.83
2022-08-28T19:08:46.539Z,2.20
2022-08-28T19:11:18.293Z,1.00
2022-08-28T19:13:50.011Z,1.80
2022-08-28T19:16:21.949Z,1.20
2022-08-28T19:18:55.712Z,1.37
2022-08-28T19:21:27.493Z,1.70
2022-08-28T19:23:59.285Z,1.20
2022-08-28T19:26:31.364Z,2.13
2022-08-28T19:29:03.431Z,1.10
2022-08-28T19:31:38.841Z,1.27
2022-08-28T19:34:12.112Z,1.43
2022-08-28T19:36:43.993Z,1.10
2022-08-28T19:39:15.753Z,2.43
2022-08-28T19:41:47.970Z,1.13
2022-08-28T19:44:19.811Z,0.90
2022-08-28T19:46:51.692Z,1.03
2022-08-28T19:49:24.218Z,0.80
2022-08-28T19:51:56.073Z,1.03
2022-08-28T19:54:28.008Z,0.70
2022-08-28T19:56:59.789Z,0.97
2022-08-28T19:59:31.695Z,3.87
2022-08-28T20:02:03.794Z,0.97
2022-08-28T20:04:36.485Z,0.80
2022-08-28T20:07:08.255Z,1.33
2022-08-28T20:09:40.011Z,1.03
2022-08-28T20:12:11.849Z,1.43
2022-08-28T20:14:44.796Z,1.20
2022-08-28T20:17:18.701Z,0.83
2022-08-28T20:19:50.475Z,1.83
2022-08-28T20:22:22.308Z,2.03
2022-08-28T20:24:54.917Z,1.20
2022-08-28T20:27:26.933Z,0.90
2022-08-28T20:30:00.195Z,0.83
2022-08-28T20:32:42.147Z,1.03
2022-08-28T20:35:15.403Z,1.77
2022-08-28T20:37:47.417Z,1.43
2022-08-28T20:40:19.426Z,1.20
2022-08-28T20:42:51.600Z,0.80
2022-08-28T20:45:23.526Z,1.20
2022-08-28T20:47:55.334Z,2.00
2022-08-28T20:50:27.221Z,3.20
2022-08-28T20:53:02.643Z,4.90
2022-08-28T20:55:34.509Z,2.07
2022-08-28T20:58:06.413Z,1.97
2022-08-28T21:00:38.228Z,1.67
2022-08-28T21:03:12.221Z,2.27
2022-08-28T21:05:48.041Z,4.50
2022-08-28T21:08:20.901Z,1.57
2022-08-28T21:10:52.812Z,2.20
2022-08-28T21:13:24.569Z,1.20
2022-08-28T21:15:56.342Z,1.43
2022-08-28T21:18:28.532Z,1.20
2022-08-28T21:21:03.381Z,2.47
2022-08-28T21:23:35.780Z,2.83
2022-08-28T21:26:11.317Z,1.80
2022-08-28T21:28:43.130Z,2.33
2022-08-28T21:31:14.992Z,1.30
2022-08-28T21:33:46.924Z,0.97
2022-08-28T21:36:18.890Z,1.63
2022-08-28T21:38:50.925Z,1.00
2022-08-28T21:41:22.694Z,1.73
2022-08-28T21:43:55.609Z,1.20
2022-08-28T21:46:28.179Z,1.43
2022-08-28T21:48:59.969Z,1.23
2022-08-28T21:51:32.235Z,1.67
2022-08-28T21:54:04.161Z,1.47
2022-08-28T21:56:35.948Z,1.80
2022-08-28T21:59:07.710Z,1.43
2022-08-28T22:01:39.489Z,2.50
2022-08-28T22:04:11.282Z,1.43
2022-08-28T22:06:43.210Z,1.70
2022-08-28T22:09:14.965Z,1.30
2022-08-28T22:11:46.866Z,1.10
2022-08-28T22:14:18.788Z,1.20
2022-08-28T22:16:50.766Z,1.63
2022-08-28T22:19:22.544Z,1.50
2022-08-28T22:22:12.783Z,1.40
2022-08-28T22:24:44.510Z,1.13
2022-08-28T22:27:16.472Z,1.40
2022-08-28T22:29:48.328Z,1.10
2022-08-28T22:32:25.526Z,2.90
2022-08-28T22:34:57.473Z,1.30
2022-08-28T22:37:29.309Z,3.30
2022-08-28T22:40:01.249Z,2.07
2022-08-28T22:42:33.085Z,2.10
2022-08-28T22:45:06.179Z,1.40
2022-08-28T22:47:37.938Z,3.00
2022-08-28T22:50:10.029Z,2.43
2022-08-28T22:52:43.320Z,2.77
2022-08-28T22:55:15.962Z,1.23
2022-08-28T22:57:47.785Z,2.70
2022-08-28T23:00:21.309Z,1.13
2022-08-28T23:02:53.915Z,1.40
2022-08-28T23:05:26.885Z,1.30
2022-08-28T23:07:58.665Z,1.83
2022-08-28T23:10:57.614Z,3.13
2022-08-28T23:13:22.346Z,2.23
2022-08-28T23:15:54.251Z,2.50
2022-08-28T23:18:26.028Z,1.50
2022-08-28T23:21:01.326Z,3.93
2022-08-28T23:23:33.205Z,2.63
2022-08-28T23:26:05.110Z,2.27
2022-08-28T23:28:36.890Z,3.07
2022-08-28T23:31:08.710Z,4.20
2022-08-28T23:33:40.536Z,1.43
2022-08-28T23:36:13.237Z,1.20
2022-08-28T23:38:45.118Z,1.40
2022-08-28T23:41:17.002Z,1.60
2022-08-28T23:43:49.000Z,1.23
2022-08-28T23:46:21.114Z,0.97
2022-08-28T23:48:53.003Z,1.53
2022-08-28T23:51:24.859Z,1.17
2022-08-28T23:53:57.149Z,1.03
2022-08-28T23:56:29.097Z,2.33
2022-08-28T23:59:01.188Z,0.90
